Royersford, PA

2:04 PM EST on December 25, 2014 (GMT -0500)
KA1UDX CWOP-AP704 | Change Station
CLOSE
Current Station
Personal Weather Station
Location: Collegeville, PA
Elevation: 253 ft
Nearby Weather Stations

Elev 253 ft 40.22 °N, 75.48 °W | Updated 57 seconds ago

Overcast
Overcast
50.2 °F
Feels Like 50.2 °F
N
7.9
Wind Variable Wind from West
Gusts 8.6 mph

Today
High -- | Low -- °F
--% Chance of Precip.
Yesterday
High -- | Low -- °F
Precip. -- in
7:22 AM 4:41 PM
Waxing Crescent, 18% visible
Pressure 29.91 in
Visibility 10.0 miles
Clouds Overcast 5500 ft
Dew Point 32 °F
Humidity 50%
Rainfall 0.04 in
Snow Depth Not available.
UV 1 out of 12
Pollen .10 out of 12
Air Quality Not available.
Flu Activity Not available.
METAR KPTW 251854Z AUTO 27007KT 250V320 10SM OVC055 09/00 A2991 RMK AO2 PK WND 30028/1829 SLP127 T00940000

More Conditions Fewer Conditions

Pressure 29.91 in
Visibility 10.0 miles
Clouds Overcast 5500 ft
Dew Point 32 °F
Humidity 50%
Rainfall 0.04 in
Snow Depth Not available.
UV 1 out of 12
Pollen .10 out of 12
Air Quality Not available.
Flu Activity Not available.
METAR KPTW 251854Z AUTO 27007KT 250V320 10SM OVC055 09/00 A2991 RMK AO2 PK WND 30028/1829 SLP127 T00940000

More Conditions Fewer Conditions

10-Day Weather Forecast

Almanac

Astronomy

Dec. 25, 2014 Rise Set
Actual Time
Civil Twilight
Nautical Twilight
Astronomical Twilight
Moon
Length of Visible Light
Length of Day
Tomorrow will be .
, % of the Moon is Illuminated

Today's Extremes

State Highs State Lows

Community

WunderPhotos

Upload Photos

1,780,364 photos uploaded!

WunderBlogs® & News

Nearby

Air Quality

  Air Quality AQ Index Pollutant
Not available.

Snow Depth

Station Depth Elevation

Earthquake Activity

City Distance Mag. Time & Date
Minimum magnitude displayed is 2.5.

Coastal Water Temperatures

Place Temperature

Nearby Weather Stations